Aviation Digital Data Service (ADDS)

Output produced by METARs form (0432 UTC 28 July 2017)
found at http://www.aviationweather.gov/adds/metars/
 
KLNS 280353Z AUTO 08003KT 4SM BR FEW017 BKN070 23/22 A2987 RMK AO2 LTG DSNT W SLP112 T02280222 $
KLNS 280314Z 2803/2824 08004KT P6SM VCSH SCT025 
     FM280400 06003KT 4SM BR SCT030 
     FM281500 08005KT P6SM BKN050 
     FM281900 09005KT P6SM -RA OVC025